Surfinn — VJN4201 — position and weather

sailwx.info

Track history (hours):
 
Tides and Currents Weather Stations Pressure Air Temp Water Temp Dewpoint Dewpoint Depression Visibility Wind Speed Wind Dir Waves Ship Positions

Surfinn

Last reported at 2017-Nov-05 16:36 UTC. Time now 2017-Dec-16 13:10 UTC.
Position N 27°44' W 015°10'.
Warning: this ship's position is 40 days out of date.

Length 17 m.

Type: Pleasure craft. MMSI: 503686600.

Date/timePositionNaut miles runAvg speedWind from/ knotsBaromVisibWave heightAir tempDewpointWater temp
2017-Nov-05 16:36N 27°44' W 015°10'1 7.5
2017-Nov-05 16:25N 27°46' W 015°10'4 8.2
2017-Nov-05 15:56N 27°50' W 015°11'4 7.8
2017-Nov-05 15:25N 27°53' W 015°12'4 8.0
2017-Nov-05 14:55N 27°57' W 015°15'4 7.6
2017-Nov-05 14:25N 27°60' W 015°18'3 7.3
2017-Nov-05 14:00N 28°02' W 015°20'3 6.6
2017-Nov-05 13:30N 28°04' W 015°22'3 5.4
2017-Nov-05 13:01N 28°07' W 015°24'0 0.3
2017-Nov-05 12:30N 28°07' W 015°24'0 0.0
2017-Nov-05 12:00N 28°07' W 015°24'1 1.1
2017-Nov-05 11:30N 28°06' W 015°24'2 3.6
2017-Nov-05 11:00N 28°07' W 015°25'0 0.8
2017-Nov-05 10:23N 28°08' W 015°26'0 0.0
2017-Nov-05 09:53N 28°08' W 015°26'0 0.0
2017-Nov-05 09:23N 28°08' W 015°26'0 0.0
2017-Nov-05 08:56N 28°08' W 015°26'0 0.0
2017-Nov-05 08:26N 28°08' W 015°26'0 0.0
2017-Nov-05 07:56N 28°08' W 015°26'0 0.0
2017-Nov-05 07:26N 28°08' W 015°26'0 0.0
2017-Nov-05 06:56N 28°08' W 015°26'0 0.0
2017-Nov-05 06:26N 28°08' W 015°26'0 0.0
2017-Nov-05 05:56N 28°08' W 015°26'0 0.0
2017-Nov-05 05:29N 28°08' W 015°26'0 0.0
2017-Nov-05 04:59N 28°08' W 015°26'0 0.0
2017-Nov-05 04:29N 28°08' W 015°26'0 0.0
2017-Nov-05 03:59N 28°08' W 015°26'0 0.0
2017-Nov-05 03:29N 28°08' W 015°26'0 0.0
2017-Nov-05 02:59N 28°08' W 015°26'0 0.0
2017-Nov-05 02:29N 28°08' W 015°26'0 0.0
2017-Nov-05 01:59N 28°08' W 015°26'0 0.0
2017-Nov-05 01:29N 28°08' W 015°26'0 0.0
2017-Nov-05 00:59N 28°08' W 015°26'0 0.0
2017-Nov-05 00:29N 28°08' W 015°26'0 0.0
2017-Nov-04 23:59N 28°08' W 015°26'0 0.0
2017-Nov-04 23:29N 28°08' W 015°26'0 0.0
2017-Nov-04 22:50N 28°08' W 015°26'0 0.0
2017-Nov-04 22:20N 28°08' W 015°26'0 0.0
2017-Nov-04 21:53N 28°08' W 015°26'0 0.0
2017-Nov-04 21:23N 28°08' W 015°26'0 0.0
2017-Nov-04 20:53N 28°08' W 015°26'0 0.0
2017-Nov-04 20:23N 28°08' W 015°26'0 0.0
2017-Nov-04 19:53N 28°08' W 015°26'0 0.0
2017-Nov-04 19:20N 28°08' W 015°26'0 0.0
2017-Nov-04 18:53N 28°08' W 015°26'0 0.0
2017-Nov-04 18:26N 28°08' W 015°26'0 0.0
2017-Nov-04 17:56N 28°08' W 015°26'0 0.0
2017-Nov-04 17:26N 28°08' W 015°26'0 0.0
2017-Nov-04 16:56N 28°08' W 015°26'0 0.0
2017-Nov-04 16:26N 28°08' W 015°26'0 0.0
2017-Nov-04 15:59N 28°08' W 015°26'0 0.0
2017-Nov-04 15:29N 28°08' W 015°26'0 0.0
2017-Nov-04 14:59N 28°08' W 015°26'0 0.0
2017-Nov-04 14:29N 28°08' W 015°26'0 0.0
2017-Nov-04 13:59N 28°08' W 015°26'0 0.0
2017-Nov-04 13:29N 28°08' W 015°26'0 0.0
2017-Nov-04 12:59N 28°08' W 015°26'0 0.0
2017-Nov-04 12:29N 28°08' W 015°26'0 0.0
2017-Nov-04 11:59N 28°08' W 015°26'0 0.0
2017-Nov-04 11:29N 28°08' W 015°26'0 0.0
2017-Nov-04 10:59N 28°08' W 015°26'0 0.0
2017-Nov-04 10:29N 28°08' W 015°26'0 0.0
2017-Nov-04 09:59N 28°08' W 015°26'0 0.0
2017-Nov-04 09:20N 28°08' W 015°26'0 0.0
2017-Nov-04 08:50N 28°08' W 015°26'0 0.0
2017-Nov-04 08:20N 28°08' W 015°26'0 0.0
2017-Nov-04 07:53N 28°08' W 015°26'0 0.0
2017-Nov-04 07:23N 28°08' W 015°26'0 0.0
2017-Nov-04 06:53N 28°08' W 015°26'0 0.0
2017-Nov-04 06:20N 28°08' W 015°26'0 0.0
2017-Nov-04 05:53N 28°08' W 015°26'0 0.0
2017-Nov-04 05:23N 28°08' W 015°26'0 0.0
2017-Nov-04 04:53N 28°08' W 015°26'0 0.0
2017-Nov-04 04:26N 28°08' W 015°26'0 0.0
2017-Nov-04 03:56N 28°08' W 015°26'0 0.0
2017-Nov-04 03:26N 28°08' W 015°26'0 0.0
2017-Nov-04 02:56N 28°08' W 015°26'0 0.0
2017-Nov-04 02:26N 28°08' W 015°26'0 0.0
2017-Nov-04 01:59N 28°08' W 015°26'0 0.0
2017-Nov-04 01:29N 28°08' W 015°26'0 0.0
2017-Nov-04 00:59N 28°08' W 015°26'0 0.0
2017-Nov-04 00:29N 28°08' W 015°26'0 0.0
2017-Nov-03 23:59N 28°08' W 015°26'0 0.0
2017-Nov-03 23:26N 28°08' W 015°26'0 0.0
2017-Nov-03 22:59N 28°08' W 015°26'0 0.0
2017-Nov-03 22:29N 28°08' W 015°26'0 0.0
2017-Nov-03 21:59N 28°08' W 015°26'0 0.0
2017-Nov-03 21:29N 28°08' W 015°26'0 0.0
2017-Nov-03 20:59N 28°08' W 015°26'0 0.0
2017-Nov-03 20:29N 28°08' W 015°26'0 0.0
2017-Nov-03 19:59N 28°08' W 015°26'0 0.0
2017-Nov-03 19:29N 28°08' W 015°26'0 0.0
2017-Nov-03 18:50N 28°08' W 015°26'0 0.0
2017-Nov-03 18:20N 28°08' W 015°26'0 0.0
2017-Nov-03 17:50N 28°08' W 015°26'0 0.0
2017-Nov-03 17:23N 28°08' W 015°26'0 0.0
2017-Nov-03 16:53N 28°08' W 015°26'0 0.0
2017-Nov-03 16:23N 28°08' W 015°26'0 0.0
2017-Nov-03 15:53N 28°08' W 015°26'0 0.0
2017-Nov-03 15:26N 28°08' W 015°26'0 0.0
2017-Nov-03 14:56N 28°08' W 015°26'0 0.0
2017-Nov-03 14:26N 28°08' W 015°26'0 0.0
2017-Nov-03 13:56N 28°08' W 015°26'0 0.0
2017-Nov-03 13:26N 28°08' W 015°26'0 0.0
2017-Nov-03 12:56N 28°08' W 015°26'0 0.0
2017-Nov-03 12:26N 28°08' W 015°26'0 0.0
2017-Nov-03 11:59N 28°08' W 015°26'0 0.0
2017-Nov-03 11:29N 28°08' W 015°26'0 0.0
2017-Nov-03 10:59N 28°08' W 015°26'0 0.0
2017-Nov-03 10:29N 28°08' W 015°26'0 0.0
2017-Nov-03 09:59N 28°08' W 015°26'0 0.0
2017-Nov-03 09:29N 28°08' W 015°26'0 0.0
2017-Nov-03 08:59N 28°08' W 015°26'0 0.0
2017-Nov-03 08:29N 28°08' W 015°26'0 0.0
2017-Nov-03 07:59N 28°08' W 015°26'0 0.0
2017-Nov-03 07:17N 28°08' W 015°26'0 0.0
2017-Nov-03 06:59N 28°08' W 015°26'0 0.0
2017-Nov-03 06:29N 28°08' W 015°26'0 0.0
2017-Nov-03 05:59N 28°08' W 015°26'0 0.0
2017-Nov-03 05:29N 28°08' W 015°26'0 0.0
2017-Nov-03 04:50N 28°08' W 015°26'0 0.0
2017-Nov-03 04:20N 28°08' W 015°26'0 0.0
2017-Nov-03 03:53N 28°08' W 015°26'0 0.0
2017-Nov-03 03:23N 28°08' W 015°26'0 0.0
2017-Nov-03 02:53N 28°08' W 015°26'0 0.0
2017-Nov-03 02:23N 28°08' W 015°26'0 0.0
2017-Nov-03 01:53N 28°08' W 015°26'0 0.0
2017-Nov-03 01:23N 28°08' W 015°26'0 0.0
2017-Nov-03 00:56N 28°08' W 015°26'0 0.0
2017-Nov-03 00:26N 28°08' W 015°26'0 0.0
2017-Nov-02 23:56N 28°08' W 015°26'0 0.0
2017-Nov-02 23:26N 28°08' W 015°26'0 0.0
2017-Nov-02 22:56N 28°08' W 015°26'0 0.0
2017-Nov-02 22:29N 28°08' W 015°26'0 0.0
2017-Nov-02 21:56N 28°08' W 015°26'0 0.0
2017-Nov-02 21:29N 28°08' W 015°26'0 0.0
2017-Nov-02 20:59N 28°08' W 015°26'0 0.0
2017-Nov-02 20:29N 28°08' W 015°26'0 0.0
2017-Nov-02 19:59N 28°08' W 015°26'0 0.0
2017-Nov-02 19:29N 28°08' W 015°26'0 0.0
2017-Nov-02 18:59N 28°08' W 015°26'0 0.0
2017-Nov-02 18:29N 28°08' W 015°26'0 0.0
2017-Nov-02 17:59N 28°08' W 015°26'0 0.0
2017-Nov-02 17:29N 28°08' W 015°26'0 0.0
2017-Nov-02 16:59N 28°08' W 015°26'0 0.0
2017-Nov-02 16:29N 28°08' W 015°26'0 0.0
2017-Nov-02 15:59N 28°08' W 015°26'0 0.0
2017-Nov-02 15:20N 28°08' W 015°26'0 0.0
2017-Nov-02 14:50N 28°08' W 015°26'0 0.0
2017-Nov-02 14:20N 28°08' W 015°26'0 0.0
2017-Nov-02 13:50N 28°08' W 015°26'0 0.0
2017-Nov-02 13:23N 28°08' W 015°26'0 0.0
2017-Nov-02 12:53N 28°08' W 015°26'0 0.0
2017-Nov-02 12:23N 28°08' W 015°26'0 0.0
2017-Nov-02 11:53N 28°08' W 015°26'0 0.0
2017-Nov-02 11:23N 28°08' W 015°26'0 0.0
2017-Nov-02 10:56N 28°08' W 015°26'0 0.0
2017-Nov-02 10:26N 28°08' W 015°26'0 0.0
2017-Nov-02 09:56N 28°08' W 015°26'0 0.0
2017-Nov-02 09:26N 28°08' W 015°26'0 0.0
2017-Nov-02 08:56N 28°08' W 015°26'0 0.0
2017-Nov-02 08:26N 28°08' W 015°26'0 0.0
2017-Nov-02 07:59N 28°08' W 015°26'0 0.0
2017-Nov-02 07:29N 28°08' W 015°26'0 0.0
2017-Nov-02 06:59N 28°08' W 015°26'0 0.0
2017-Nov-02 06:29N 28°08' W 015°26'0 0.0
2017-Nov-02 05:41N 28°08' W 015°26'0 0.0
2017-Nov-02 05:29N 28°08' W 015°26'0 0.0
2017-Nov-02 04:59N 28°08' W 015°26'0 0.0
2017-Nov-02 04:29N 28°08' W 015°26'0 0.0
2017-Nov-02 03:59N 28°08' W 015°26'0 0.0
2017-Nov-02 03:29N 28°08' W 015°26'0 0.0
2017-Nov-02 02:59N 28°08' W 015°26'0 0.0
2017-Nov-02 02:29N 28°08' W 015°26'0 0.0
2017-Nov-02 01:59N 28°08' W 015°26'0 0.0
2017-Nov-02 01:29N 28°08' W 015°26'0 0.0
2017-Nov-02 00:50N 28°08' W 015°26'0 0.0
2017-Nov-02 00:20N 28°08' W 015°26'0 0.0
2017-Nov-01 23:50N 28°08' W 015°26'0 0.0
2017-Nov-01 23:23N 28°08' W 015°26'0 0.0
2017-Nov-01 22:53N 28°08' W 015°26'0 0.0
2017-Nov-01 22:23N 28°08' W 015°26'0 0.0
2017-Nov-01 21:53N 28°08' W 015°26'0 0.0
2017-Nov-01 21:23N 28°08' W 015°26'0 0.0
2017-Nov-01 20:53N 28°08' W 015°26'0 0.0
2017-Nov-01 20:26N 28°08' W 015°26'0 0.0
2017-Nov-01 19:56N 28°08' W 015°26'0 0.0
2017-Nov-01 19:26N 28°08' W 015°26'0 0.0
2017-Nov-01 18:56N 28°08' W 015°26'0 0.0
2017-Nov-01 18:26N 28°08' W 015°26'0 0.0
2017-Nov-01 01:58N 28°08' W 015°26'0 0.0
2017-Nov-01 01:28N 28°08' W 015°26'0 0.0
2017-Nov-01 00:58N 28°08' W 015°26'0 0.0
2017-Nov-01 00:19N 28°08' W 015°26'0 0.0
2017-Oct-31 23:49N 28°08' W 015°26'0 0.0
2017-Oct-31 23:19N 28°08' W 015°26'0 0.0
2017-Oct-31 22:52N 28°08' W 015°26'0 0.0
2017-Oct-31 22:22N 28°08' W 015°26'0 0.0
2017-Oct-31 21:52N 28°08' W 015°26'0 0.0
2017-Oct-31 21:19N 28°08' W 015°26'0 0.0
2017-Oct-31 20:52N 28°08' W 015°26'0 0.0
2017-Oct-31 20:19N 28°08' W 015°26'0 0.0
2017-Oct-31 19:55N 28°08' W 015°26'0 0.0
2017-Oct-31 19:19N 28°08' W 015°26'0 0.0
2017-Oct-31 18:55N 28°08' W 015°26'0 0.0
2017-Oct-31 18:25N 28°08' W 015°26'0 0.0
2017-Oct-31 17:55N 28°08' W 015°26'0 0.0
2017-Oct-31 17:28N 28°08' W 015°26'0 0.0
2017-Oct-31 16:58N 28°08' W 015°26'0 0.0
2017-Oct-31 16:28N 28°08' W 015°26'0 0.0
2017-Oct-31 15:58N 28°08' W 015°26'0 0.0
2017-Oct-31 15:28N 28°08' W 015°26'0 0.0
2017-Oct-31 14:58N 28°08' W 015°26'0 0.0
2017-Oct-31 14:28N 28°08' W 015°26'0 0.0
2017-Oct-31 13:58N 28°08' W 015°26'0 0.0
2017-Oct-31 13:28N 28°08' W 015°26'0 0.0
2017-Oct-31 12:58N 28°08' W 015°26'0 0.0
2017-Oct-31 12:28N 28°08' W 015°26'0 0.0
2017-Oct-31 11:58N 28°08' W 015°26'0 0.0
2017-Oct-31 11:28N 28°08' W 015°26'0 0.0
2017-Oct-31 10:49N 28°08' W 015°26'0 0.0
2017-Oct-31 10:28N 28°08' W 015°26'0 0.0
2017-Oct-31 09:22N 28°08' W 015°26'0 0.0
2017-Oct-31 08:52N 28°08' W 015°26'0 0.0
2017-Oct-31 08:22N 28°08' W 015°26'0 0.0
2017-Oct-31 07:52N 28°08' W 015°26'0 0.0
2017-Oct-31 07:22N 28°08' W 015°26'0 0.0
2017-Oct-31 06:49N 28°08' W 015°26'0 0.0
2017-Oct-31 06:22N 28°08' W 015°26'0 0.0
2017-Oct-31 05:55N 28°08' W 015°26'0 0.0
2017-Oct-31 05:25N 28°08' W 015°26'0 0.0
2017-Oct-31 04:55N 28°08' W 015°26'0 0.0
2017-Oct-31 04:25N 28°08' W 015°26'0 0.0
2017-Oct-31 03:58N 28°08' W 015°26'0 0.0
2017-Oct-31 03:25N 28°08' W 015°26'0 0.0
2017-Oct-31 02:58N 28°08' W 015°26'0 0.0
2017-Oct-31 02:28N 28°08' W 015°26'0 0.0
2017-Oct-31 01:58N 28°08' W 015°26'0 0.0
2017-Oct-31 01:28N 28°08' W 015°26'0 0.0
2017-Oct-31 00:58N 28°08' W 015°26'0 0.0
2017-Oct-31 00:28N 28°08' W 015°26'0 0.0
2017-Oct-30 23:58N 28°08' W 015°26'0 0.0
2017-Oct-30 23:28N 28°08' W 015°26'0 0.0
2017-Oct-30 22:58N 28°08' W 015°26'0 0.0
2017-Oct-30 22:28N 28°08' W 015°26'0 0.0
2017-Oct-30 21:52N 28°08' W 015°26'0 0.0
2017-Oct-30 21:22N 28°08' W 015°26'0 0.0
2017-Oct-30 20:52N 28°08' W 015°26'0 0.0
2017-Oct-30 20:22N 28°08' W 015°26'0 0.0
2017-Oct-30 19:55N 28°08' W 015°26'0 0.0
2017-Oct-30 19:22N 28°08' W 015°26'0 0.0
2017-Oct-30 18:52N 28°08' W 015°26'0 0.0
2017-Oct-30 18:25N 28°08' W 015°26'0 0.0
2017-Oct-30 17:55N 28°08' W 015°26'0 0.0
2017-Oct-30 17:25N 28°08' W 015°26'0 0.0
2017-Oct-30 16:55N 28°08' W 015°26'0 0.0
2017-Oct-30 16:25N 28°08' W 015°26'0 0.0
2017-Oct-30 15:55N 28°08' W 015°26'0 0.0
2017-Oct-30 15:28N 28°08' W 015°26'0 0.0
2017-Oct-30 14:58N 28°08' W 015°26'0 0.0
2017-Oct-30 13:58N 28°08' W 015°26'0 0.0
2017-Oct-30 13:28N 28°08' W 015°26'0 0.0
2017-Oct-30 12:58N 28°08' W 015°26'0 0.0
2017-Oct-30 12:28N 28°08' W 015°26'0 0.0
2017-Oct-30 11:58N 28°08' W 015°26'0 0.0
2017-Oct-30 11:28N 28°08' W 015°26'0 0.0
2017-Oct-30 10:58N 28°08' W 015°26'0 0.0
2017-Oct-30 10:28N 28°08' W 015°26'0 0.0
2017-Oct-30 09:59N 28°08' W 015°26'0 0.0
2017-Oct-30 09:28N 28°08' W 015°26'0 0.0
2017-Oct-30 08:58N 28°08' W 015°26'0 0.0
2017-Oct-30 08:28N 28°08' W 015°26'0 0.0
2017-Oct-30 07:46N 28°08' W 015°26'0 0.0
2017-Oct-30 07:28N 28°08' W 015°26'0 0.0
2017-Oct-30 06:58N 28°08' W 015°26'0 0.0
2017-Oct-30 06:28N 28°08' W 015°26'0 0.0
2017-Oct-30 05:58N 28°08' W 015°26'0 0.0
2017-Oct-30 05:28N 28°08' W 015°26'0 0.0
2017-Oct-30 04:58N 28°08' W 015°26'0 0.0
2017-Oct-30 04:28N 28°08' W 015°26'0 0.0
2017-Oct-30 03:49N 28°08' W 015°26'0 0.0
2017-Oct-30 03:04N 28°08' W 015°26'0 0.0
2017-Oct-30 02:52N 28°08' W 015°26'0 0.0
2017-Oct-30 02:19N 28°08' W 015°26'0 0.0
2017-Oct-30 01:52N 28°08' W 015°26'0 0.0
2017-Oct-30 01:19N 28°08' W 015°26'0 0.0
2017-Oct-30 00:52N 28°08' W 015°26'0 0.0
2017-Oct-30 00:22N 28°08' W 015°26'0 0.0
2017-Oct-29 23:55N 28°08' W 015°26'0 0.0
2017-Oct-29 23:25N 28°08' W 015°26'0 0.0
2017-Oct-29 22:55N 28°08' W 015°26'0 0.0
2017-Oct-29 22:25N 28°08' W 015°26'0 0.0
2017-Oct-29 21:55N 28°08' W 015°26'0 0.0
2017-Oct-29 21:25N 28°08' W 015°26'0 0.0
2017-Oct-29 20:58N 28°08' W 015°26'0 0.0
2017-Oct-29 20:28N 28°08' W 015°26'0 0.0
2017-Oct-29 19:58N 28°08' W 015°26'0 0.0
2017-Oct-29 19:28N 28°08' W 015°26'0 0.0
2017-Oct-29 18:46N 28°08' W 015°26'0 0.0
2017-Oct-29 18:28N 28°08' W 015°26'0 0.0
2017-Oct-29 17:58N 28°08' W 015°26'0 0.0
2017-Oct-29 17:28N 28°08' W 015°26'0 0.0
2017-Oct-29 17:00N 28°08' W 015°26'0 0.0
2017-Oct-29 16:28N 28°08' W 015°26'0 0.0
2017-Oct-29 15:58N 28°08' W 015°26'0 0.0
2017-Oct-29 15:28N 28°08' W 015°26'0 0.0
2017-Oct-29 14:58N 28°08' W 015°26'0 0.0
2017-Oct-29 14:19N 28°08' W 015°26'0 0.0
2017-Oct-29 13:58N 28°08' W 015°26'0 0.0
2017-Oct-29 13:28N 28°08' W 015°26'0 0.0
2017-Oct-29 12:34N 28°08' W 015°26'0 0.0
2017-Oct-29 12:16N 28°08' W 015°26'0 0.1
2017-Oct-29 11:54N 28°08' W 015°26'0 0.1
2017-Oct-29 11:27N 28°08' W 015°26'1 2.0
2017-Oct-29 11:00N 28°07' W 015°25'2 3.6
2017-Oct-29 10:30N 28°08' W 015°23'1 1.9
2017-Oct-29 09:59N 28°08' W 015°22'1 1.9
2017-Oct-29 09:30N 28°08' W 015°21'1 2.1
2017-Oct-29 08:55N 28°06' W 015°21'1 2.6
2017-Oct-29 08:30N 28°05' W 015°20'1 1.9
2017-Oct-29 08:00N 28°06' W 015°21'1 2.3
2017-Oct-29 07:30N 28°06' W 015°23'3 6.4
2017-Oct-29 07:00N 28°08' W 015°25'0 0.2
2017-Oct-29 06:19N 28°08' W 015°26'0 0.0
2017-Oct-29 05:49N 28°08' W 015°26'0 0.0
2017-Oct-29 05:16N 28°08' W 015°26'0 0.0
2017-Oct-29 04:49N 28°08' W 015°26'0 0.0
2017-Oct-29 04:19N 28°08' W 015°26'0 0.0
2017-Oct-29 03:49N 28°08' W 015°26'0 0.0
2017-Oct-28 18:58N 28°08' W 015°26'0 0.0
2017-Oct-28 18:28N 28°08' W 015°26'0 0.0
2017-Oct-28 17:58N 28°08' W 015°26'0 0.0
2017-Oct-28 17:19N 28°08' W 015°26'0 0.0
2017-Oct-28 16:49N 28°08' W 015°26'0 0.0
2017-Oct-28 16:22N 28°08' W 015°26'0 0.0
2017-Oct-28 15:52N 28°08' W 015°26'0 0.0
2017-Oct-28 15:22N 28°08' W 015°26'0 0.0
2017-Oct-28 14:52N 28°08' W 015°26'0 0.0
2017-Oct-28 14:22N 28°08' W 015°26'0 0.0
2017-Oct-28 13:52N 28°08' W 015°26'0 0.0
2017-Oct-28 13:25N 28°08' W 015°26'0 0.0
2017-Oct-28 12:55N 28°08' W 015°26'0 0.0
2017-Oct-28 12:25N 28°08' W 015°26'0 0.0
2017-Oct-28 11:55N 28°08' W 015°26'0 0.0
2017-Oct-28 11:25N 28°08' W 015°26'0 0.0
2017-Oct-28 10:52N 28°08' W 015°26'0 0.0
2017-Oct-28 10:28N 28°08' W 015°26'0 0.0
2017-Oct-28 09:58N 28°08' W 015°26'0 0.0
2017-Oct-28 09:28N 28°08' W 015°26'0 0.0
2017-Oct-28 08:58N 28°08' W 015°26'0 0.0
2017-Oct-28 08:28N 28°08' W 015°26'0 0.0
2017-Oct-28 07:58N 28°08' W 015°26'0 0.0
2017-Oct-28 07:28N 28°08' W 015°26'0 0.0
2017-Oct-28 06:58N 28°08' W 015°26'0 0.0
2017-Oct-28 06:28N 28°08' W 015°26'0 0.0
2017-Oct-28 05:58N 28°08' W 015°26'0 0.0
2017-Oct-28 05:28N 28°08' W 015°26'0 0.0
2017-Oct-28 04:58N 28°08' W 015°26'0 0.0
2017-Oct-28 04:28N 28°08' W 015°26'0 0.0
2017-Oct-28 03:58N 28°08' W 015°26'0 0.0
2017-Oct-28 03:19N 28°08' W 015°26'0 0.0
2017-Oct-28 02:49N 28°08' W 015°26'0 0.0
2017-Oct-28 02:22N 28°08' W 015°26'0 0.0
2017-Oct-28 01:52N 28°08' W 015°26'0 0.0
2017-Oct-28 01:22N 28°08' W 015°26'0 0.0
2017-Oct-28 00:49N 28°08' W 015°26'0 0.0
2017-Oct-28 00:22N 28°08' W 015°26'0 0.0
2017-Oct-27 23:52N 28°08' W 015°26'0 0.0
2017-Oct-27 23:25N 28°08' W 015°26'0 0.0
2017-Oct-27 22:55N 28°08' W 015°26'0 0.0
2017-Oct-27 22:25N 28°08' W 015°26'0 0.0
2017-Oct-27 21:55N 28°08' W 015°26'0 0.0
2017-Oct-27 21:25N 28°08' W 015°26'0 0.0
2017-Oct-27 20:58N 28°08' W 015°26'0 0.0
2017-Oct-27 20:28N 28°08' W 015°26'0 0.0
2017-Oct-27 19:58N 28°08' W 015°26'0 0.0
2017-Oct-27 19:28N 28°08' W 015°26'0 0.0
2017-Oct-27 18:58N 28°08' W 015°26'0 0.0
2017-Oct-27 18:28N 28°08' W 015°26'0 0.0
2017-Oct-27 17:58N 28°08' W 015°26'0 0.0
2017-Oct-27 17:28N 28°08' W 015°26'0 0.0
2017-Oct-27 16:58N 28°08' W 015°26'0 0.0
2017-Oct-27 16:28N 28°08' W 015°26'0 0.0
2017-Oct-27 15:46N 28°08' W 015°26'0 0.0
2017-Oct-27 15:28N 28°08' W 015°26'0 0.0
2017-Oct-27 14:49N 28°08' W 015°26'0 0.0
2017-Oct-27 14:28N 28°08' W 015°26'0 0.0
2017-Oct-27 13:58N 28°08' W 015°26'0 0.0
2017-Oct-27 13:19N 28°08' W 015°26'0 0.0
2017-Oct-27 12:54N 28°08' W 015°26'0 0.0
2017-Oct-27 12:24N 28°08' W 015°26'0 0.0
2017-Oct-27 11:51N 28°08' W 015°26'0 0.0
2017-Oct-27 11:27N 28°08' W 015°26'0 0.0
2017-Oct-27 10:57N 28°08' W 015°26'0 0.0
2017-Oct-27 10:27N 28°08' W 015°26'0 0.0
2017-Oct-27 09:57N 28°08' W 015°26'0 0.0
2017-Oct-27 09:27N 28°08' W 015°26'0 0.0
2017-Oct-27 08:57N 28°08' W 015°26'0 0.0
2017-Oct-27 08:30N 28°08' W 015°26'0 0.0
2017-Oct-27 08:00N 28°08' W 015°26'0 0.0
2017-Oct-27 07:30N 28°08' W 015°26'0 0.0
2017-Oct-27 07:00N 28°08' W 015°26'0 0.0
2017-Oct-27 06:30N 28°08' W 015°26'0 0.0
2017-Oct-27 06:00N 28°08' W 015°26'0 0.0
2017-Oct-27 05:30N 28°08' W 015°26'0 0.0
2017-Oct-27 05:00N 28°08' W 015°26'0 0.0
2017-Oct-27 04:30N 28°08' W 015°26'0 0.0
2017-Oct-27 04:00N 28°08' W 015°26'0 0.0
2017-Oct-27 03:30N 28°08' W 015°26'0 0.0
2017-Oct-27 03:00N 28°08' W 015°26'0 0.0
2017-Oct-27 02:30N 28°08' W 015°26'0 0.0
2017-Oct-27 01:51N 28°08' W 015°26'0 0.0
2017-Oct-27 01:21N 28°08' W 015°26'0 0.0
2017-Oct-27 00:51N 28°08' W 015°26'0 0.0
2017-Oct-27 00:24N 28°08' W 015°26'0 0.0
2017-Oct-26 23:54N 28°08' W 015°26'0 0.0
2017-Oct-26 23:24N 28°08' W 015°26'0 0.0
2017-Oct-26 22:54N 28°08' W 015°26'0 0.0
2017-Oct-26 22:24N 28°08' W 015°26'0 0.0
2017-Oct-26 21:54N 28°08' W 015°26'0 0.0
2017-Oct-26 21:27N 28°08' W 015°26'0 0.0
2017-Oct-26 20:57N 28°08' W 015°26'0 0.0
2017-Oct-26 20:27N 28°08' W 015°26'0 0.0
2017-Oct-26 19:57N 28°08' W 015°26'0 0.0
2017-Oct-26 19:27N 28°08' W 015°26'0 0.0
2017-Oct-26 18:57N 28°08' W 015°26'0 0.0
2017-Oct-26 18:30N 28°08' W 015°26'0 0.0
2017-Oct-26 18:00N 28°08' W 015°26'0 0.0
2017-Oct-26 17:30N 28°08' W 015°26'0 0.0
2017-Oct-26 17:00N 28°08' W 015°26'  
Track history (hours):
 
Tides and Currents Weather Stations Pressure Air Temp Water Temp Dewpoint Dewpoint Depression Visibility Wind Speed Wind Dir Waves Ship Positions

Surfinn

Last reported at 2017-Nov-05 16:36 UTC. Time now 2017-Dec-16 13:10 UTC.
Position N 27°44' W 015°10'.
Warning: this ship's position is 40 days out of date.

Length 17 m.

Type: Pleasure craft. MMSI: 503686600.

Date/timePositionNaut miles runAvg speedWind from/ knotsBaromVisibWave heightAir tempDewpointWater temp
2017-Nov-05 16:36N 27°44' W 015°10'1 7.5
2017-Nov-05 16:25N 27°46' W 015°10'4 8.2
2017-Nov-05 15:56N 27°50' W 015°11'4 7.8
2017-Nov-05 15:25N 27°53' W 015°12'4 8.0
2017-Nov-05 14:55N 27°57' W 015°15'4 7.6
2017-Nov-05 14:25N 27°60' W 015°18'3 7.3
2017-Nov-05 14:00N 28°02' W 015°20'3 6.6
2017-Nov-05 13:30N 28°04' W 015°22'3 5.4
2017-Nov-05 13:01N 28°07' W 015°24'0 0.3
2017-Nov-05 12:30N 28°07' W 015°24'0 0.0
2017-Nov-05 12:00N 28°07' W 015°24'1 1.1
2017-Nov-05 11:30N 28°06' W 015°24'2 3.6
2017-Nov-05 11:00N 28°07' W 015°25'0 0.8
2017-Nov-05 10:23N 28°08' W 015°26'0 0.0
2017-Nov-05 09:53N 28°08' W 015°26'0 0.0
2017-Nov-05 09:23N 28°08' W 015°26'0 0.0
2017-Nov-05 08:56N 28°08' W 015°26'0 0.0
2017-Nov-05 08:26N 28°08' W 015°26'0 0.0
2017-Nov-05 07:56N 28°08' W 015°26'0 0.0
2017-Nov-05 07:26N 28°08' W 015°26'0 0.0
2017-Nov-05 06:56N 28°08' W 015°26'0 0.0
2017-Nov-05 06:26N 28°08' W 015°26'0 0.0
2017-Nov-05 05:56N 28°08' W 015°26'0 0.0
2017-Nov-05 05:29N 28°08' W 015°26'0 0.0
2017-Nov-05 04:59N 28°08' W 015°26'0 0.0
2017-Nov-05 04:29N 28°08' W 015°26'0 0.0
2017-Nov-05 03:59N 28°08' W 015°26'0 0.0
2017-Nov-05 03:29N 28°08' W 015°26'0 0.0
2017-Nov-05 02:59N 28°08' W 015°26'0 0.0
2017-Nov-05 02:29N 28°08' W 015°26'0 0.0
2017-Nov-05 01:59N 28°08' W 015°26'0 0.0
2017-Nov-05 01:29N 28°08' W 015°26'0 0.0
2017-Nov-05 00:59N 28°08' W 015°26'0 0.0
2017-Nov-05 00:29N 28°08' W 015°26'0 0.0
2017-Nov-04 23:59N 28°08' W 015°26'0 0.0
2017-Nov-04 23:29N 28°08' W 015°26'0 0.0
2017-Nov-04 22:50N 28°08' W 015°26'0 0.0
2017-Nov-04 22:20N 28°08' W 015°26'0 0.0
2017-Nov-04 21:53N 28°08' W 015°26'0 0.0
2017-Nov-04 21:23N 28°08' W 015°26'0 0.0
2017-Nov-04 20:53N 28°08' W 015°26'0 0.0
2017-Nov-04 20:23N 28°08' W 015°26'0 0.0
2017-Nov-04 19:53N 28°08' W 015°26'0 0.0
2017-Nov-04 19:20N 28°08' W 015°26'0 0.0
2017-Nov-04 18:53N 28°08' W 015°26'0 0.0
2017-Nov-04 18:26N 28°08' W 015°26'0 0.0
2017-Nov-04 17:56N 28°08' W 015°26'0 0.0
2017-Nov-04 17:26N 28°08' W 015°26'0 0.0
2017-Nov-04 16:56N 28°08' W 015°26'0 0.0
2017-Nov-04 16:26N 28°08' W 015°26'0 0.0
2017-Nov-04 15:59N 28°08' W 015°26'0 0.0
2017-Nov-04 15:29N 28°08' W 015°26'0 0.0
2017-Nov-04 14:59N 28°08' W 015°26'0 0.0
2017-Nov-04 14:29N 28°08' W 015°26'0 0.0
2017-Nov-04 13:59N 28°08' W 015°26'0 0.0
2017-Nov-04 13:29N 28°08' W 015°26'0 0.0
2017-Nov-04 12:59N 28°08' W 015°26'0 0.0
2017-Nov-04 12:29N 28°08' W 015°26'0 0.0
2017-Nov-04 11:59N 28°08' W 015°26'0 0.0
2017-Nov-04 11:29N 28°08' W 015°26'0 0.0
2017-Nov-04 10:59N 28°08' W 015°26'0 0.0
2017-Nov-04 10:29N 28°08' W 015°26'0 0.0
2017-Nov-04 09:59N 28°08' W 015°26'0 0.0
2017-Nov-04 09:20N 28°08' W 015°26'0 0.0
2017-Nov-04 08:50N 28°08' W 015°26'0 0.0
2017-Nov-04 08:20N 28°08' W 015°26'0 0.0
2017-Nov-04 07:53N 28°08' W 015°26'0 0.0
2017-Nov-04 07:23N 28°08' W 015°26'0 0.0
2017-Nov-04 06:53N 28°08' W 015°26'0 0.0
2017-Nov-04 06:20N 28°08' W 015°26'0 0.0
2017-Nov-04 05:53N 28°08' W 015°26'0 0.0
2017-Nov-04 05:23N 28°08' W 015°26'0 0.0
2017-Nov-04 04:53N 28°08' W 015°26'0 0.0
2017-Nov-04 04:26N 28°08' W 015°26'0 0.0
2017-Nov-04 03:56N 28°08' W 015°26'0 0.0
2017-Nov-04 03:26N 28°08' W 015°26'0 0.0
2017-Nov-04 02:56N 28°08' W 015°26'0 0.0
2017-Nov-04 02:26N 28°08' W 015°26'0 0.0
2017-Nov-04 01:59N 28°08' W 015°26'0 0.0
2017-Nov-04 01:29N 28°08' W 015°26'0 0.0
2017-Nov-04 00:59N 28°08' W 015°26'0 0.0
2017-Nov-04 00:29N 28°08' W 015°26'0 0.0
2017-Nov-03 23:59N 28°08' W 015°26'0 0.0
2017-Nov-03 23:26N 28°08' W 015°26'0 0.0
2017-Nov-03 22:59N 28°08' W 015°26'0 0.0
2017-Nov-03 22:29N 28°08' W 015°26'0 0.0
2017-Nov-03 21:59N 28°08' W 015°26'0 0.0
2017-Nov-03 21:29N 28°08' W 015°26'0 0.0
2017-Nov-03 20:59N 28°08' W 015°26'0 0.0
2017-Nov-03 20:29N 28°08' W 015°26'0 0.0
2017-Nov-03 19:59N 28°08' W 015°26'0 0.0
2017-Nov-03 19:29N 28°08' W 015°26'0 0.0
2017-Nov-03 18:50N 28°08' W 015°26'0 0.0
2017-Nov-03 18:20N 28°08' W 015°26'0 0.0
2017-Nov-03 17:50N 28°08' W 015°26'0 0.0
2017-Nov-03 17:23N 28°08' W 015°26'0 0.0
2017-Nov-03 16:53N 28°08' W 015°26'0 0.0
2017-Nov-03 16:23N 28°08' W 015°26'0 0.0
2017-Nov-03 15:53N 28°08' W 015°26'0 0.0
2017-Nov-03 15:26N 28°08' W 015°26'0 0.0
2017-Nov-03 14:56N 28°08' W 015°26'0 0.0
2017-Nov-03 14:26N 28°08' W 015°26'0 0.0
2017-Nov-03 13:56N 28°08' W 015°26'0 0.0
2017-Nov-03 13:26N 28°08' W 015°26'0 0.0
2017-Nov-03 12:56N 28°08' W 015°26'0 0.0
2017-Nov-03 12:26N 28°08' W 015°26'0 0.0
2017-Nov-03 11:59N 28°08' W 015°26'0 0.0
2017-Nov-03 11:29N 28°08' W 015°26'0 0.0
2017-Nov-03 10:59N 28°08' W 015°26'0 0.0
2017-Nov-03 10:29N 28°08' W 015°26'0 0.0
2017-Nov-03 09:59N 28°08' W 015°26'0 0.0
2017-Nov-03 09:29N 28°08' W 015°26'0 0.0
2017-Nov-03 08:59N 28°08' W 015°26'0 0.0
2017-Nov-03 08:29N 28°08' W 015°26'0 0.0
2017-Nov-03 07:59N 28°08' W 015°26'0 0.0
2017-Nov-03 07:17N 28°08' W 015°26'0 0.0
2017-Nov-03 06:59N 28°08' W 015°26'0 0.0
2017-Nov-03 06:29N 28°08' W 015°26'0 0.0
2017-Nov-03 05:59N 28°08' W 015°26'0 0.0
2017-Nov-03 05:29N 28°08' W 015°26'0 0.0
2017-Nov-03 04:50N 28°08' W 015°26'0 0.0
2017-Nov-03 04:20N 28°08' W 015°26'0 0.0
2017-Nov-03 03:53N 28°08' W 015°26'0 0.0
2017-Nov-03 03:23N 28°08' W 015°26'0 0.0
2017-Nov-03 02:53N 28°08' W 015°26'0 0.0
2017-Nov-03 02:23N 28°08' W 015°26'0 0.0
2017-Nov-03 01:53N 28°08' W 015°26'0 0.0
2017-Nov-03 01:23N 28°08' W 015°26'0 0.0
2017-Nov-03 00:56N 28°08' W 015°26'0 0.0
2017-Nov-03 00:26N 28°08' W 015°26'0 0.0
2017-Nov-02 23:56N 28°08' W 015°26'0 0.0
2017-Nov-02 23:26N 28°08' W 015°26'0 0.0
2017-Nov-02 22:56N 28°08' W 015°26'0 0.0
2017-Nov-02 22:29N 28°08' W 015°26'0 0.0
2017-Nov-02 21:56N 28°08' W 015°26'0 0.0
2017-Nov-02 21:29N 28°08' W 015°26'0 0.0
2017-Nov-02 20:59N 28°08' W 015°26'0 0.0
2017-Nov-02 20:29N 28°08' W 015°26'0 0.0
2017-Nov-02 19:59N 28°08' W 015°26'0 0.0
2017-Nov-02 19:29N 28°08' W 015°26'0 0.0
2017-Nov-02 18:59N 28°08' W 015°26'0 0.0
2017-Nov-02 18:29N 28°08' W 015°26'0 0.0
2017-Nov-02 17:59N 28°08' W 015°26'0 0.0
2017-Nov-02 17:29N 28°08' W 015°26'0 0.0
2017-Nov-02 16:59N 28°08' W 015°26'0 0.0
2017-Nov-02 16:29N 28°08' W 015°26'0 0.0
2017-Nov-02 15:59N 28°08' W 015°26'0 0.0
2017-Nov-02 15:20N 28°08' W 015°26'0 0.0
2017-Nov-02 14:50N 28°08' W 015°26'0 0.0
2017-Nov-02 14:20N 28°08' W 015°26'0 0.0
2017-Nov-02 13:50N 28°08' W 015°26'0 0.0
2017-Nov-02 13:23N 28°08' W 015°26'0 0.0
2017-Nov-02 12:53N 28°08' W 015°26'0 0.0
2017-Nov-02 12:23N 28°08' W 015°26'0 0.0
2017-Nov-02 11:53N 28°08' W 015°26'0 0.0
2017-Nov-02 11:23N 28°08' W 015°26'0 0.0
2017-Nov-02 10:56N 28°08' W 015°26'0 0.0
2017-Nov-02 10:26N 28°08' W 015°26'0 0.0
2017-Nov-02 09:56N 28°08' W 015°26'0 0.0
2017-Nov-02 09:26N 28°08' W 015°26'0 0.0
2017-Nov-02 08:56N 28°08' W 015°26'0 0.0
2017-Nov-02 08:26N 28°08' W 015°26'0 0.0
2017-Nov-02 07:59N 28°08' W 015°26'0 0.0
2017-Nov-02 07:29N 28°08' W 015°26'0 0.0
2017-Nov-02 06:59N 28°08' W 015°26'0 0.0
2017-Nov-02 06:29N 28°08' W 015°26'0 0.0
2017-Nov-02 05:41N 28°08' W 015°26'0 0.0
2017-Nov-02 05:29N 28°08' W 015°26'0 0.0
2017-Nov-02 04:59N 28°08' W 015°26'0 0.0
2017-Nov-02 04:29N 28°08' W 015°26'0 0.0
2017-Nov-02 03:59N 28°08' W 015°26'0 0.0
2017-Nov-02 03:29N 28°08' W 015°26'0 0.0
2017-Nov-02 02:59N 28°08' W 015°26'0 0.0
2017-Nov-02 02:29N 28°08' W 015°26'0 0.0
2017-Nov-02 01:59N 28°08' W 015°26'0 0.0
2017-Nov-02 01:29N 28°08' W 015°26'0 0.0
2017-Nov-02 00:50N 28°08' W 015°26'0 0.0
2017-Nov-02 00:20N 28°08' W 015°26'0 0.0
2017-Nov-01 23:50N 28°08' W 015°26'0 0.0
2017-Nov-01 23:23N 28°08' W 015°26'0 0.0
2017-Nov-01 22:53N 28°08' W 015°26'0 0.0
2017-Nov-01 22:23N 28°08' W 015°26'0 0.0
2017-Nov-01 21:53N 28°08' W 015°26'0 0.0
2017-Nov-01 21:23N 28°08' W 015°26'0 0.0
2017-Nov-01 20:53N 28°08' W 015°26'0 0.0
2017-Nov-01 20:26N 28°08' W 015°26'0 0.0
2017-Nov-01 19:56N 28°08' W 015°26'0 0.0
2017-Nov-01 19:26N 28°08' W 015°26'0 0.0
2017-Nov-01 18:56N 28°08' W 015°26'0 0.0
2017-Nov-01 18:26N 28°08' W 015°26'0 0.0
2017-Nov-01 01:58N 28°08' W 015°26'0 0.0
2017-Nov-01 01:28N 28°08' W 015°26'0 0.0
2017-Nov-01 00:58N 28°08' W 015°26'0 0.0
2017-Nov-01 00:19N 28°08' W 015°26'0 0.0
2017-Oct-31 23:49N 28°08' W 015°26'0 0.0
2017-Oct-31 23:19N 28°08' W 015°26'0 0.0
2017-Oct-31 22:52N 28°08' W 015°26'0 0.0
2017-Oct-31 22:22N 28°08' W 015°26'0 0.0
2017-Oct-31 21:52N 28°08' W 015°26'0 0.0
2017-Oct-31 21:19N 28°08' W 015°26'0 0.0
2017-Oct-31 20:52N 28°08' W 015°26'0 0.0
2017-Oct-31 20:19N 28°08' W 015°26'0 0.0
2017-Oct-31 19:55N 28°08' W 015°26'0 0.0
2017-Oct-31 19:19N 28°08' W 015°26'0 0.0
2017-Oct-31 18:55N 28°08' W 015°26'0 0.0
2017-Oct-31 18:25N 28°08' W 015°26'0 0.0
2017-Oct-31 17:55N 28°08' W 015°26'0 0.0
2017-Oct-31 17:28N 28°08' W 015°26'0 0.0
2017-Oct-31 16:58N 28°08' W 015°26'0 0.0
2017-Oct-31 16:28N 28°08' W 015°26'0 0.0
2017-Oct-31 15:58N 28°08' W 015°26'0 0.0
2017-Oct-31 15:28N 28°08' W 015°26'0 0.0
2017-Oct-31 14:58N 28°08' W 015°26'0 0.0
2017-Oct-31 14:28N 28°08' W 015°26'0 0.0
2017-Oct-31 13:58N 28°08' W 015°26'0 0.0
2017-Oct-31 13:28N 28°08' W 015°26'0 0.0
2017-Oct-31 12:58N 28°08' W 015°26'0 0.0
2017-Oct-31 12:28N 28°08' W 015°26'0 0.0
2017-Oct-31 11:58N 28°08' W 015°26'0 0.0
2017-Oct-31 11:28N 28°08' W 015°26'0 0.0
2017-Oct-31 10:49N 28°08' W 015°26'0 0.0
2017-Oct-31 10:28N 28°08' W 015°26'0 0.0
2017-Oct-31 09:22N 28°08' W 015°26'0 0.0
2017-Oct-31 08:52N 28°08' W 015°26'0 0.0
2017-Oct-31 08:22N 28°08' W 015°26'0 0.0
2017-Oct-31 07:52N 28°08' W 015°26'0 0.0
2017-Oct-31 07:22N 28°08' W 015°26'0 0.0
2017-Oct-31 06:49N 28°08' W 015°26'0 0.0
2017-Oct-31 06:22N 28°08' W 015°26'0 0.0
2017-Oct-31 05:55N 28°08' W 015°26'0 0.0
2017-Oct-31 05:25N 28°08' W 015°26'0 0.0
2017-Oct-31 04:55N 28°08' W 015°26'0 0.0
2017-Oct-31 04:25N 28°08' W 015°26'0 0.0
2017-Oct-31 03:58N 28°08' W 015°26'0 0.0
2017-Oct-31 03:25N 28°08' W 015°26'0 0.0
2017-Oct-31 02:58N 28°08' W 015°26'0 0.0
2017-Oct-31 02:28N 28°08' W 015°26'0 0.0
2017-Oct-31 01:58N 28°08' W 015°26'0 0.0
2017-Oct-31 01:28N 28°08' W 015°26'0 0.0
2017-Oct-31 00:58N 28°08' W 015°26'0 0.0
2017-Oct-31 00:28N 28°08' W 015°26'0 0.0
2017-Oct-30 23:58N 28°08' W 015°26'0 0.0
2017-Oct-30 23:28N 28°08' W 015°26'0 0.0
2017-Oct-30 22:58N 28°08' W 015°26'0 0.0
2017-Oct-30 22:28N 28°08' W 015°26'0 0.0
2017-Oct-30 21:52N 28°08' W 015°26'0 0.0
2017-Oct-30 21:22N 28°08' W 015°26'0 0.0
2017-Oct-30 20:52N 28°08' W 015°26'0 0.0
2017-Oct-30 20:22N 28°08' W 015°26'0 0.0
2017-Oct-30 19:55N 28°08' W 015°26'0 0.0
2017-Oct-30 19:22N 28°08' W 015°26'0 0.0
2017-Oct-30 18:52N 28°08' W 015°26'0 0.0
2017-Oct-30 18:25N 28°08' W 015°26'0 0.0
2017-Oct-30 17:55N 28°08' W 015°26'0 0.0
2017-Oct-30 17:25N 28°08' W 015°26'0 0.0
2017-Oct-30 16:55N 28°08' W 015°26'0 0.0
2017-Oct-30 16:25N 28°08' W 015°26'0 0.0
2017-Oct-30 15:55N 28°08' W 015°26'0 0.0
2017-Oct-30 15:28N 28°08' W 015°26'0 0.0
2017-Oct-30 14:58N 28°08' W 015°26'0 0.0
2017-Oct-30 13:58N 28°08' W 015°26'0 0.0
2017-Oct-30 13:28N 28°08' W 015°26'0 0.0
2017-Oct-30 12:58N 28°08' W 015°26'0 0.0
2017-Oct-30 12:28N 28°08' W 015°26'0 0.0
2017-Oct-30 11:58N 28°08' W 015°26'0 0.0
2017-Oct-30 11:28N 28°08' W 015°26'0 0.0
2017-Oct-30 10:58N 28°08' W 015°26'0 0.0
2017-Oct-30 10:28N 28°08' W 015°26'0 0.0
2017-Oct-30 09:59N 28°08' W 015°26'0 0.0
2017-Oct-30 09:28N 28°08' W 015°26'0 0.0
2017-Oct-30 08:58N 28°08' W 015°26'0 0.0
2017-Oct-30 08:28N 28°08' W 015°26'0 0.0
2017-Oct-30 07:46N 28°08' W 015°26'0 0.0
2017-Oct-30 07:28N 28°08' W 015°26'0 0.0
2017-Oct-30 06:58N 28°08' W 015°26'0 0.0
2017-Oct-30 06:28N 28°08' W 015°26'0 0.0
2017-Oct-30 05:58N 28°08' W 015°26'0 0.0
2017-Oct-30 05:28N 28°08' W 015°26'0 0.0
2017-Oct-30 04:58N 28°08' W 015°26'0 0.0
2017-Oct-30 04:28N 28°08' W 015°26'0 0.0
2017-Oct-30 03:49N 28°08' W 015°26'0 0.0
2017-Oct-30 03:04N 28°08' W 015°26'0 0.0
2017-Oct-30 02:52N 28°08' W 015°26'0 0.0
2017-Oct-30 02:19N 28°08' W 015°26'0 0.0
2017-Oct-30 01:52N 28°08' W 015°26'0 0.0
2017-Oct-30 01:19N 28°08' W 015°26'0 0.0
2017-Oct-30 00:52N 28°08' W 015°26'0 0.0
2017-Oct-30 00:22N 28°08' W 015°26'0 0.0
2017-Oct-29 23:55N 28°08' W 015°26'0 0.0
2017-Oct-29 23:25N 28°08' W 015°26'0 0.0
2017-Oct-29 22:55N 28°08' W 015°26'0 0.0
2017-Oct-29 22:25N 28°08' W 015°26'0 0.0
2017-Oct-29 21:55N 28°08' W 015°26'0 0.0
2017-Oct-29 21:25N 28°08' W 015°26'0 0.0
2017-Oct-29 20:58N 28°08' W 015°26'0 0.0
2017-Oct-29 20:28N 28°08' W 015°26'0 0.0
2017-Oct-29 19:58N 28°08' W 015°26'0 0.0
2017-Oct-29 19:28N 28°08' W 015°26'0 0.0
2017-Oct-29 18:46N 28°08' W 015°26'0 0.0
2017-Oct-29 18:28N 28°08' W 015°26'0 0.0
2017-Oct-29 17:58N 28°08' W 015°26'0 0.0
2017-Oct-29 17:28N 28°08' W 015°26'0 0.0
2017-Oct-29 17:00N 28°08' W 015°26'0 0.0
2017-Oct-29 16:28N 28°08' W 015°26'0 0.0
2017-Oct-29 15:58N 28°08' W 015°26'0 0.0
2017-Oct-29 15:28N 28°08' W 015°26'0 0.0
2017-Oct-29 14:58N 28°08' W 015°26'0 0.0
2017-Oct-29 14:19N 28°08' W 015°26'0 0.0
2017-Oct-29 13:58N 28°08' W 015°26'0 0.0
2017-Oct-29 13:28N 28°08' W 015°26'0 0.0
2017-Oct-29 12:34N 28°08' W 015°26'0 0.0
2017-Oct-29 12:16N 28°08' W 015°26'0 0.1
2017-Oct-29 11:54N 28°08' W 015°26'0 0.1
2017-Oct-29 11:27N 28°08' W 015°26'1 2.0
2017-Oct-29 11:00N 28°07' W 015°25'2 3.6
2017-Oct-29 10:30N 28°08' W 015°23'1 1.9
2017-Oct-29 09:59N 28°08' W 015°22'1 1.9
2017-Oct-29 09:30N 28°08' W 015°21'1 2.1
2017-Oct-29 08:55N 28°06' W 015°21'1 2.6
2017-Oct-29 08:30N 28°05' W 015°20'1 1.9
2017-Oct-29 08:00N 28°06' W 015°21'1 2.3
2017-Oct-29 07:30N 28°06' W 015°23'3 6.4
2017-Oct-29 07:00N 28°08' W 015°25'0 0.2
2017-Oct-29 06:19N 28°08' W 015°26'0 0.0
2017-Oct-29 05:49N 28°08' W 015°26'0 0.0
2017-Oct-29 05:16N 28°08' W 015°26'0 0.0
2017-Oct-29 04:49N 28°08' W 015°26'0 0.0
2017-Oct-29 04:19N 28°08' W 015°26'0 0.0
2017-Oct-29 03:49N 28°08' W 015°26'0 0.0
2017-Oct-28 18:58N 28°08' W 015°26'0 0.0
2017-Oct-28 18:28N 28°08' W 015°26'0 0.0
2017-Oct-28 17:58N 28°08' W 015°26'0 0.0
2017-Oct-28 17:19N 28°08' W 015°26'0 0.0
2017-Oct-28 16:49N 28°08' W 015°26'0 0.0
2017-Oct-28 16:22N 28°08' W 015°26'0 0.0
2017-Oct-28 15:52N 28°08' W 015°26'0 0.0
2017-Oct-28 15:22N 28°08' W 015°26'0 0.0
2017-Oct-28 14:52N 28°08' W 015°26'0 0.0
2017-Oct-28 14:22N 28°08' W 015°26'0 0.0
2017-Oct-28 13:52N 28°08' W 015°26'0 0.0
2017-Oct-28 13:25N 28°08' W 015°26'0 0.0
2017-Oct-28 12:55N 28°08' W 015°26'0 0.0
2017-Oct-28 12:25N 28°08' W 015°26'0 0.0
2017-Oct-28 11:55N 28°08' W 015°26'0 0.0
2017-Oct-28 11:25N 28°08' W 015°26'0 0.0
2017-Oct-28 10:52N 28°08' W 015°26'0 0.0
2017-Oct-28 10:28N 28°08' W 015°26'0 0.0
2017-Oct-28 09:58N 28°08' W 015°26'0 0.0
2017-Oct-28 09:28N 28°08' W 015°26'0 0.0
2017-Oct-28 08:58N 28°08' W 015°26'0 0.0
2017-Oct-28 08:28N 28°08' W 015°26'0 0.0
2017-Oct-28 07:58N 28°08' W 015°26'0 0.0
2017-Oct-28 07:28N 28°08' W 015°26'0 0.0
2017-Oct-28 06:58N 28°08' W 015°26'0 0.0
2017-Oct-28 06:28N 28°08' W 015°26'0 0.0
2017-Oct-28 05:58N 28°08' W 015°26'0 0.0
2017-Oct-28 05:28N 28°08' W 015°26'0 0.0
2017-Oct-28 04:58N 28°08' W 015°26'0 0.0
2017-Oct-28 04:28N 28°08' W 015°26'0 0.0
2017-Oct-28 03:58N 28°08' W 015°26'0 0.0
2017-Oct-28 03:19N 28°08' W 015°26'0 0.0
2017-Oct-28 02:49N 28°08' W 015°26'0 0.0
2017-Oct-28 02:22N 28°08' W 015°26'0 0.0
2017-Oct-28 01:52N 28°08' W 015°26'0 0.0
2017-Oct-28 01:22N 28°08' W 015°26'0 0.0
2017-Oct-28 00:49N 28°08' W 015°26'0 0.0
2017-Oct-28 00:22N 28°08' W 015°26'0 0.0
2017-Oct-27 23:52N 28°08' W 015°26'0 0.0
2017-Oct-27 23:25N 28°08' W 015°26'0 0.0
2017-Oct-27 22:55N 28°08' W 015°26'0 0.0
2017-Oct-27 22:25N 28°08' W 015°26'0 0.0
2017-Oct-27 21:55N 28°08' W 015°26'0 0.0
2017-Oct-27 21:25N 28°08' W 015°26'0 0.0
2017-Oct-27 20:58N 28°08' W 015°26'0 0.0
2017-Oct-27 20:28N 28°08' W 015°26'0 0.0
2017-Oct-27 19:58N 28°08' W 015°26'0 0.0
2017-Oct-27 19:28N 28°08' W 015°26'0 0.0
2017-Oct-27 18:58N 28°08' W 015°26'0 0.0
2017-Oct-27 18:28N 28°08' W 015°26'0 0.0
2017-Oct-27 17:58N 28°08' W 015°26'0 0.0
2017-Oct-27 17:28N 28°08' W 015°26'0 0.0
2017-Oct-27 16:58N 28°08' W 015°26'0 0.0
2017-Oct-27 16:28N 28°08' W 015°26'0 0.0
2017-Oct-27 15:46N 28°08' W 015°26'0 0.0
2017-Oct-27 15:28N 28°08' W 015°26'0 0.0
2017-Oct-27 14:49N 28°08' W 015°26'0 0.0
2017-Oct-27 14:28N 28°08' W 015°26'0 0.0
2017-Oct-27 13:58N 28°08' W 015°26'0 0.0
2017-Oct-27 13:19N 28°08' W 015°26'0 0.0
2017-Oct-27 12:54N 28°08' W 015°26'0 0.0
2017-Oct-27 12:24N 28°08' W 015°26'0 0.0
2017-Oct-27 11:51N 28°08' W 015°26'0 0.0
2017-Oct-27 11:27N 28°08' W 015°26'0 0.0
2017-Oct-27 10:57N 28°08' W 015°26'0 0.0
2017-Oct-27 10:27N 28°08' W 015°26'0 0.0
2017-Oct-27 09:57N 28°08' W 015°26'0 0.0
2017-Oct-27 09:27N 28°08' W 015°26'0 0.0
2017-Oct-27 08:57N 28°08' W 015°26'0 0.0
2017-Oct-27 08:30N 28°08' W 015°26'0 0.0
2017-Oct-27 08:00N 28°08' W 015°26'0 0.0
2017-Oct-27 07:30N 28°08' W 015°26'0 0.0
2017-Oct-27 07:00N 28°08' W 015°26'0 0.0
2017-Oct-27 06:30N 28°08' W 015°26'0 0.0
2017-Oct-27 06:00N 28°08' W 015°26'0 0.0
2017-Oct-27 05:30N 28°08' W 015°26'0 0.0
2017-Oct-27 05:00N 28°08' W 015°26'0 0.0
2017-Oct-27 04:30N 28°08' W 015°26'0 0.0
2017-Oct-27 04:00N 28°08' W 015°26'0 0.0
2017-Oct-27 03:30N 28°08' W 015°26'0 0.0
2017-Oct-27 03:00N 28°08' W 015°26'0 0.0
2017-Oct-27 02:30N 28°08' W 015°26'0 0.0
2017-Oct-27 01:51N 28°08' W 015°26'0 0.0
2017-Oct-27 01:21N 28°08' W 015°26'0 0.0
2017-Oct-27 00:51N 28°08' W 015°26'0 0.0
2017-Oct-27 00:24N 28°08' W 015°26'0 0.0
2017-Oct-26 23:54N 28°08' W 015°26'0 0.0
2017-Oct-26 23:24N 28°08' W 015°26'0 0.0
2017-Oct-26 22:54N 28°08' W 015°26'0 0.0
2017-Oct-26 22:24N 28°08' W 015°26'0 0.0
2017-Oct-26 21:54N 28°08' W 015°26'0 0.0
2017-Oct-26 21:27N 28°08' W 015°26'0 0.0
2017-Oct-26 20:57N 28°08' W 015°26'0 0.0
2017-Oct-26 20:27N 28°08' W 015°26'0 0.0
2017-Oct-26 19:57N 28°08' W 015°26'0 0.0
2017-Oct-26 19:27N 28°08' W 015°26'0 0.0
2017-Oct-26 18:57N 28°08' W 015°26'0 0.0
2017-Oct-26 18:30N 28°08' W 015°26'0 0.0
2017-Oct-26 18:00N 28°08' W 015°26'0 0.0
2017-Oct-26 17:30N 28°08' W 015°26'0 0.0
2017-Oct-26 17:00N 28°08' W 015°26'  

Dump ship's entire track history